Troviken — C6ZT9 — position and weather

sailwx.info

Track history (hours):
 
Tides and Currents Weather Stations Pressure Air Temp Water Temp Dewpoint Dewpoint Depression Visibility Wind Speed Wind Dir Waves Ship Positions

Troviken

Last reported at 2016-Jul-16 09:09 UTC. Time now 2016-Jul-26 10:21 UTC.
Position N 29°08' W 094°26'.
Warning: this ship's position is 10 days out of date.

Length 250 m; draft 8.5 m.

Type: Tanker. MMSI: 311066200.

Date/timePositionNaut miles runAvg speedWind from/ knotsBaromVisibWave heightAir tempDewpointWater temp
2016-Jul-16 09:09N 29°08' W 094°26'1811.2
2016-Jul-16 07:30N 29°21' W 094°42'9 8.7
2016-Jul-16 06:31N 29°26' W 094°50'2110.7
2016-Jul-16 04:33N 29°44' W 095°02'5 5.3
2016-Jul-16 03:34N 29°44' W 095°08'0 0.0
2016-Jul-14 00:31N 29°44' W 095°08'4 3.6
2016-Jul-13 23:32N 29°45' W 095°04'6 6.5
2016-Jul-13 22:33N 29°40' W 094°58'9 9.3
2016-Jul-13 21:33N 29°32' W 094°54'10 9.8
2016-Jul-13 20:33N 29°23' W 094°49'12 9.9
2016-Jul-13 19:18N 29°17' W 094°36'  
Track history (hours):
 
Tides and Currents Weather Stations Pressure Air Temp Water Temp Dewpoint Dewpoint Depression Visibility Wind Speed Wind Dir Waves Ship Positions

Troviken

Last reported at 2016-Jul-16 09:09 UTC. Time now 2016-Jul-26 10:21 UTC.
Position N 29°08' W 094°26'.
Warning: this ship's position is 10 days out of date.

Length 250 m; draft 8.5 m.

Type: Tanker. MMSI: 311066200.

Date/timePositionNaut miles runAvg speedWind from/ knotsBaromVisibWave heightAir tempDewpointWater temp
2016-Jul-16 09:09N 29°08' W 094°26'1811.2
2016-Jul-16 07:30N 29°21' W 094°42'9 8.7
2016-Jul-16 06:31N 29°26' W 094°50'2110.7
2016-Jul-16 04:33N 29°44' W 095°02'5 5.3
2016-Jul-16 03:34N 29°44' W 095°08'0 0.0
2016-Jul-14 00:31N 29°44' W 095°08'4 3.6
2016-Jul-13 23:32N 29°45' W 095°04'6 6.5
2016-Jul-13 22:33N 29°40' W 094°58'9 9.3
2016-Jul-13 21:33N 29°32' W 094°54'10 9.8
2016-Jul-13 20:33N 29°23' W 094°49'12 9.9
2016-Jul-13 19:18N 29°17' W 094°36'  

Dump ship's entire track history